createdAt,value
2022-07-25T00:02:34.002Z,99.90
2022-07-25T00:05:37.994Z,99.90
2022-07-25T00:08:39.814Z,99.90
2022-07-25T00:11:41.867Z,99.90
2022-07-25T00:14:43.493Z,99.90
2022-07-25T00:17:45.224Z,99.90
2022-07-25T00:20:47.411Z,99.90
2022-07-25T00:23:49.120Z,99.90
2022-07-25T00:26:50.700Z,99.90
2022-07-25T00:29:52.381Z,99.90
2022-07-25T00:32:53.991Z,99.90
2022-07-25T00:35:55.592Z,99.90
2022-07-25T00:38:57.249Z,99.90
2022-07-25T00:41:58.846Z,99.90
2022-07-25T00:45:00.460Z,99.90
2022-07-25T00:48:02.047Z,99.90
2022-07-25T00:51:04.356Z,99.90
2022-07-25T00:54:06.641Z,99.90
2022-07-25T00:57:08.475Z,99.90
2022-07-25T01:00:13.734Z,99.90
2022-07-25T01:03:16.088Z,99.90
2022-07-25T01:06:17.803Z,99.90
2022-07-25T01:09:20.521Z,99.90
2022-07-25T01:12:22.133Z,99.90
2022-07-25T01:15:24.913Z,99.90
2022-07-25T01:18:26.641Z,99.90
2022-07-25T01:21:28.313Z,99.90
2022-07-25T01:24:29.977Z,99.90
2022-07-25T01:27:32.123Z,99.90
2022-07-25T01:30:33.735Z,99.90
2022-07-25T01:33:35.430Z,99.90
2022-07-25T01:36:37.068Z,99.90
2022-07-25T01:39:38.665Z,99.90
2022-07-25T01:42:40.422Z,99.90
2022-07-25T01:45:42.190Z,99.90
2022-07-25T01:48:43.990Z,99.90
2022-07-25T01:51:45.698Z,99.90
2022-07-25T01:54:48.203Z,99.90
2022-07-25T01:57:50.809Z,99.90
2022-07-25T02:00:53.879Z,99.90
2022-07-25T02:03:55.501Z,99.90
2022-07-25T02:06:57.155Z,99.90
2022-07-25T02:09:58.764Z,99.90
2022-07-25T02:13:01.403Z,99.90
2022-07-25T02:16:03.134Z,99.90
2022-07-25T02:19:04.856Z,99.90
2022-07-25T02:22:06.718Z,99.90
2022-07-25T02:25:08.887Z,99.90
2022-07-25T02:28:10.667Z,99.90
2022-07-25T02:31:12.629Z,99.90
2022-07-25T02:34:14.342Z,99.90
2022-07-25T02:37:15.972Z,99.90
2022-07-25T02:40:17.614Z,99.90
2022-07-25T02:43:19.993Z,99.90
2022-07-25T02:46:21.699Z,99.90
2022-07-25T02:49:23.397Z,99.90
2022-07-25T02:52:25.032Z,99.90
2022-07-25T02:55:26.884Z,99.90
2022-07-25T02:58:28.493Z,99.90
2022-07-25T03:01:30.181Z,99.90
2022-07-25T03:04:31.946Z,99.90
2022-07-25T03:07:33.746Z,99.90
2022-07-25T03:10:36.340Z,99.90
2022-07-25T03:13:37.967Z,99.90
2022-07-25T03:16:39.632Z,99.90
2022-07-25T03:19:41.340Z,99.90
2022-07-25T03:22:42.978Z,99.90
2022-07-25T03:25:44.636Z,99.90
2022-07-25T03:28:46.246Z,99.90
2022-07-25T03:31:47.942Z,99.90
2022-07-25T03:34:49.707Z,99.90
2022-07-25T03:37:51.525Z,99.90
2022-07-25T03:40:53.134Z,99.90
2022-07-25T03:43:54.781Z,99.90
2022-07-25T03:46:56.366Z,99.90
2022-07-25T03:49:57.981Z,99.90
2022-07-25T03:52:59.646Z,99.90
2022-07-25T03:56:01.238Z,99.90
2022-07-25T03:59:03.949Z,99.90
2022-07-25T04:02:05.673Z,99.90
2022-07-25T04:05:08.738Z,99.90
2022-07-25T04:08:10.394Z,99.90
2022-07-25T04:11:12.023Z,99.90
2022-07-25T04:14:14.266Z,99.90
2022-07-25T04:17:15.919Z,99.90
2022-07-25T04:20:17.707Z,99.90
2022-07-25T04:23:19.309Z,99.90
2022-07-25T04:26:20.993Z,99.90
2022-07-25T04:29:22.577Z,99.90
2022-07-25T04:32:26.762Z,99.90
2022-07-25T04:35:28.535Z,99.90
2022-07-25T04:38:30.167Z,99.90
2022-07-25T04:41:32.111Z,99.90
2022-07-25T04:44:33.947Z,99.90
2022-07-25T04:47:35.572Z,99.90
2022-07-25T04:50:38.067Z,99.90
2022-07-25T04:53:39.696Z,99.90
2022-07-25T04:56:41.313Z,99.90
2022-07-25T04:59:44.192Z,99.90
2022-07-25T05:02:45.906Z,99.90
2022-07-25T05:05:47.554Z,99.90
2022-07-25T05:08:49.186Z,99.90
2022-07-25T05:11:55.930Z,99.90
2022-07-25T05:14:58.358Z,99.90
2022-07-25T05:18:00.052Z,99.90
2022-07-25T05:21:01.765Z,99.90
2022-07-25T05:24:04.246Z,99.90
2022-07-25T05:27:06.142Z,99.90
2022-07-25T05:30:09.920Z,99.90
2022-07-25T05:33:11.549Z,99.90
2022-07-25T05:36:13.196Z,99.90
2022-07-25T05:39:15.029Z,99.90
2022-07-25T05:42:16.628Z,99.90
2022-07-25T05:45:18.237Z,99.90
2022-07-25T05:48:19.839Z,99.90
2022-07-25T05:51:21.443Z,99.90
2022-07-25T05:54:23.118Z,99.90
2022-07-25T05:57:24.715Z,99.90
2022-07-25T06:00:26.747Z,99.90
2022-07-25T06:03:28.488Z,99.90
2022-07-25T06:06:32.608Z,99.90
2022-07-25T06:09:34.214Z,99.90
2022-07-25T06:12:36.702Z,99.90
2022-07-25T06:15:38.684Z,99.90
2022-07-25T06:18:40.305Z,99.90
2022-07-25T06:21:41.961Z,99.90
2022-07-25T06:24:43.613Z,99.90
2022-07-25T06:27:45.256Z,99.90
2022-07-25T06:30:47.339Z,99.90
2022-07-25T06:33:49.203Z,99.90
2022-07-25T06:36:50.871Z,99.90
2022-07-25T06:39:52.713Z,99.90
2022-07-25T06:42:54.602Z,99.90
2022-07-25T06:45:56.248Z,99.90
2022-07-25T06:48:57.931Z,99.90
2022-07-25T06:51:59.620Z,99.90
2022-07-25T06:55:01.765Z,99.90
2022-07-25T06:58:03.606Z,99.90
2022-07-25T07:01:05.401Z,99.90
2022-07-25T07:04:07.342Z,99.90
2022-07-25T07:07:09.315Z,99.90
2022-07-25T07:10:10.996Z,99.90
2022-07-25T07:13:15.182Z,99.90
2022-07-25T07:16:20.223Z,99.90
2022-07-25T07:19:22.421Z,99.90
2022-07-25T07:22:24.173Z,99.90
2022-07-25T07:25:28.436Z,99.90
2022-07-25T07:28:30.374Z,99.90
2022-07-25T07:31:32.216Z,99.90
2022-07-25T07:34:33.891Z,99.90
2022-07-25T07:37:41.445Z,99.90
2022-07-25T07:40:45.022Z,99.90
2022-07-25T07:43:47.004Z,99.90
2022-07-25T07:46:48.919Z,99.90
2022-07-25T07:49:51.060Z,99.90
2022-07-25T07:52:54.936Z,99.90
2022-07-25T07:55:56.583Z,99.90
2022-07-25T07:58:58.211Z,99.90
2022-07-25T08:02:00.042Z,99.90
2022-07-25T08:05:01.785Z,99.90
2022-07-25T08:08:03.968Z,99.90
2022-07-25T08:11:05.715Z,99.90
2022-07-25T08:14:07.891Z,99.90
2022-07-25T08:17:09.710Z,99.90
2022-07-25T08:20:36.926Z,99.90
2022-07-25T08:23:38.643Z,99.90
2022-07-25T08:26:40.355Z,99.90
2022-07-25T08:29:41.959Z,99.90
2022-07-25T08:32:56.222Z,99.90
2022-07-25T08:36:01.018Z,99.90
2022-07-25T08:39:03.160Z,99.90
2022-07-25T08:42:10.629Z,99.90
2022-07-25T08:45:13.880Z,99.90
2022-07-25T08:48:23.818Z,99.90
2022-07-25T08:51:25.947Z,99.90
2022-07-25T08:54:27.609Z,99.60
2022-07-25T08:57:29.240Z,99.40
2022-07-25T09:00:30.863Z,98.50
2022-07-25T09:03:33.006Z,98.80
2022-07-25T09:06:35.236Z,97.80
2022-07-25T09:09:38.898Z,97.20
2022-07-25T09:12:41.749Z,96.30
2022-07-25T09:15:49.556Z,96.70
2022-07-25T09:18:51.793Z,96.90
2022-07-25T09:21:59.791Z,95.10
2022-07-25T09:25:01.423Z,96.30
2022-07-25T09:28:15.920Z,95.50
2022-07-25T09:31:21.206Z,94.70
2022-07-25T09:34:37.713Z,93.90
2022-07-25T09:37:39.586Z,93.80
2022-07-25T09:40:42.479Z,92.70
2022-07-25T09:43:44.670Z,92.20
2022-07-25T09:46:46.400Z,92.00
2022-07-25T09:49:48.096Z,91.90
2022-07-25T09:52:52.898Z,91.00
2022-07-25T09:55:56.769Z,90.20
2022-07-25T09:58:58.723Z,89.60
2022-07-25T10:02:17.757Z,87.20
2022-07-25T10:05:48.601Z,86.10
2022-07-25T10:08:51.486Z,83.10
2022-07-25T10:12:10.589Z,82.30
2022-07-25T10:15:14.048Z,80.00
2022-07-25T10:18:17.814Z,81.30
2022-07-25T10:21:26.756Z,81.20
2022-07-25T10:24:37.514Z,79.70
2022-07-25T10:27:50.536Z,78.80
2022-07-25T10:30:58.558Z,77.20
2022-07-25T10:34:06.485Z,75.70
2022-07-25T10:37:18.358Z,77.20
2022-07-25T10:40:35.435Z,76.90
2022-07-25T10:43:39.069Z,76.30
2022-07-25T10:46:43.904Z,75.70
2022-07-25T10:50:15.236Z,73.60
2022-07-25T10:53:09.805Z,72.90
2022-07-25T10:56:22.636Z,70.80
2022-07-25T10:59:29.314Z,69.50
2022-07-25T11:02:31.179Z,70.60
2022-07-25T11:05:44.745Z,70.20
2022-07-25T11:08:46.721Z,68.90
2022-07-25T11:11:50.630Z,68.20
2022-07-25T11:15:00.473Z,68.70
2022-07-25T11:18:02.083Z,68.60
2022-07-25T11:21:08.547Z,69.10
2022-07-25T11:24:10.147Z,69.60
2022-07-25T11:27:20.943Z,69.50
2022-07-25T11:30:22.741Z,69.40
2022-07-25T11:33:24.472Z,68.80
2022-07-25T11:36:26.220Z,69.50
2022-07-25T11:39:33.067Z,69.20
2022-07-25T11:42:44.563Z,70.50
2022-07-25T11:45:56.877Z,68.30
2022-07-25T11:49:06.576Z,68.20
2022-07-25T11:52:38.269Z,67.90
2022-07-25T11:55:42.279Z,67.40
2022-07-25T11:58:49.644Z,67.90
2022-07-25T12:01:51.584Z,72.90
2022-07-25T12:04:54.952Z,71.10
2022-07-25T12:07:56.616Z,69.60
2022-07-25T12:10:58.347Z,70.40
2022-07-25T12:14:04.785Z,70.50
2022-07-25T12:17:06.398Z,69.70
2022-07-25T12:20:27.285Z,68.00
2022-07-25T12:23:28.881Z,68.60
2022-07-25T12:26:30.560Z,66.30
2022-07-25T12:29:32.201Z,65.10
2022-07-25T12:32:34.453Z,64.90
2022-07-25T12:35:39.395Z,64.80
2022-07-25T12:38:41.031Z,64.30
2022-07-25T12:41:43.055Z,63.30
2022-07-25T12:44:44.813Z,63.30
2022-07-25T12:47:47.939Z,63.60
2022-07-25T12:50:49.684Z,63.70
2022-07-25T12:53:51.314Z,64.00
2022-07-25T12:56:52.995Z,64.20
2022-07-25T12:59:54.639Z,65.00
2022-07-25T13:02:56.497Z,64.70
2022-07-25T13:05:58.531Z,64.40
2022-07-25T13:09:00.170Z,64.00
2022-07-25T13:12:01.797Z,64.70
2022-07-25T13:15:04.189Z,62.80
2022-07-25T13:18:06.073Z,63.50
2022-07-25T13:21:07.687Z,63.00
2022-07-25T13:24:10.458Z,64.20
2022-07-25T13:27:12.275Z,62.70
2022-07-25T13:30:14.485Z,62.50
2022-07-25T13:33:17.206Z,62.00
2022-07-25T13:36:19.276Z,62.10
2022-07-25T13:39:23.820Z,62.90
2022-07-25T13:42:25.526Z,62.40
2022-07-25T13:45:27.237Z,62.60
2022-07-25T13:48:30.839Z,63.50
2022-07-25T13:51:33.022Z,63.10
2022-07-25T13:54:34.706Z,63.80
2022-07-25T13:57:36.335Z,63.70
2022-07-25T14:00:37.927Z,63.30
2022-07-25T14:03:39.621Z,60.50
2022-07-25T14:06:41.745Z,61.60
2022-07-25T14:09:43.415Z,62.30
2022-07-25T14:12:45.673Z,62.50
2022-07-25T14:15:47.368Z,63.00
2022-07-25T14:18:48.987Z,63.80
2022-07-25T14:21:50.612Z,69.20
2022-07-25T14:24:52.298Z,74.50
2022-07-25T14:27:53.973Z,77.20
2022-07-25T14:30:55.785Z,76.10
2022-07-25T14:33:58.030Z,76.80
2022-07-25T14:37:00.069Z,78.60
2022-07-25T14:40:03.473Z,79.00
2022-07-25T14:43:05.127Z,78.00
2022-07-25T14:46:08.204Z,77.00
2022-07-25T14:49:14.155Z,77.00
2022-07-25T14:52:16.375Z,74.40
2022-07-25T14:55:18.681Z,73.30
2022-07-25T14:58:20.295Z,71.80
2022-07-25T15:01:25.207Z,71.30
2022-07-25T15:04:28.000Z,68.60
2022-07-25T15:07:29.628Z,68.80
2022-07-25T15:10:31.270Z,68.80
2022-07-25T15:13:33.078Z,70.40
2022-07-25T15:16:34.856Z,71.50
2022-07-25T15:19:36.605Z,73.30
2022-07-25T15:22:38.225Z,72.30
2022-07-25T15:29:01.662Z,70.00
2022-07-25T15:32:05.474Z,66.80
2022-07-25T15:35:08.288Z,65.90
2022-07-25T15:38:09.973Z,66.60
2022-07-25T15:41:12.075Z,66.10
2022-07-25T15:44:13.723Z,66.30
2022-07-25T15:47:15.595Z,66.80
2022-07-25T15:50:18.197Z,67.40
2022-07-25T15:53:20.148Z,67.00
2022-07-25T15:56:21.926Z,66.70
2022-07-25T15:59:23.581Z,65.10
2022-07-25T16:02:25.486Z,64.40
2022-07-25T16:05:27.186Z,63.80
2022-07-25T16:08:28.853Z,63.60
2022-07-25T16:11:30.636Z,64.70
2022-07-25T16:14:32.267Z,64.70
2022-07-25T16:17:36.906Z,64.80
2022-07-25T16:20:38.596Z,64.80
2022-07-25T16:23:45.004Z,65.70
2022-07-25T16:26:48.914Z,65.20
2022-07-25T16:29:50.944Z,64.70
2022-07-25T16:32:52.598Z,65.00
2022-07-25T16:35:54.262Z,64.40
2022-07-25T16:38:55.919Z,65.50
2022-07-25T16:41:57.555Z,62.70
2022-07-25T16:44:59.237Z,62.60
2022-07-25T16:48:00.901Z,61.70
2022-07-25T16:51:02.512Z,61.90
2022-07-25T16:54:04.443Z,61.60
2022-07-25T16:57:06.351Z,61.30
2022-07-25T17:00:09.287Z,60.90
2022-07-25T17:03:10.889Z,61.30
2022-07-25T17:06:12.539Z,61.30
2022-07-25T17:09:14.189Z,61.90
2022-07-25T17:12:17.298Z,62.30
2022-07-25T17:15:20.025Z,62.60
2022-07-25T17:18:21.760Z,62.90
2022-07-25T17:21:23.364Z,63.20
2022-07-25T17:24:24.978Z,62.20
2022-07-25T17:27:26.709Z,62.50
2022-07-25T17:30:28.352Z,61.80
2022-07-25T17:33:30.021Z,63.40
2022-07-25T17:36:31.712Z,64.60
2022-07-25T17:39:34.065Z,64.60
2022-07-25T17:42:35.646Z,63.80
2022-07-25T17:45:37.293Z,63.40
2022-07-25T17:48:40.609Z,63.30
2022-07-25T17:51:42.242Z,62.60
2022-07-25T17:54:43.923Z,62.40
2022-07-25T17:57:46.109Z,61.30
2022-07-25T18:00:47.785Z,60.90
2022-07-25T18:03:50.494Z,61.30
2022-07-25T18:06:52.188Z,62.00
2022-07-25T18:09:53.796Z,63.10
2022-07-25T18:12:55.501Z,64.30
2022-07-25T18:15:57.228Z,65.00
2022-07-25T18:18:58.966Z,65.90
2022-07-25T18:22:00.556Z,66.20
2022-07-25T18:25:02.191Z,66.60
2022-07-25T18:28:04.148Z,65.90
2022-07-25T18:31:06.005Z,65.50
2022-07-25T18:34:08.179Z,65.60
2022-07-25T18:37:10.221Z,65.80
2022-07-25T18:40:12.596Z,66.00
2022-07-25T18:43:14.438Z,66.40
2022-07-25T18:46:16.698Z,67.80
2022-07-25T18:49:18.481Z,67.70
2022-07-25T18:52:20.955Z,67.90
2022-07-25T18:55:22.645Z,68.10
2022-07-25T18:58:24.722Z,68.10
2022-07-25T19:01:26.366Z,67.80
2022-07-25T19:04:29.182Z,68.00
2022-07-25T19:07:31.297Z,68.40
2022-07-25T19:10:33.056Z,68.60
2022-07-25T19:13:53.118Z,69.10
2022-07-25T19:16:55.090Z,69.70
2022-07-25T19:19:56.782Z,69.90
2022-07-25T19:22:58.387Z,70.40
2022-07-25T19:26:01.907Z,70.90
2022-07-25T19:29:06.853Z,71.60
2022-07-25T19:32:08.621Z,72.10
2022-07-25T19:35:10.792Z,72.70
2022-07-25T19:38:12.446Z,73.30
2022-07-25T19:41:14.468Z,74.10
2022-07-25T19:44:16.120Z,74.70
2022-07-25T19:47:17.861Z,74.00
2022-07-25T19:50:19.754Z,74.30
2022-07-25T19:53:26.735Z,73.50
2022-07-25T19:56:30.849Z,74.00
2022-07-25T19:59:32.579Z,74.10
2022-07-25T20:02:34.203Z,74.50
2022-07-25T20:05:36.110Z,74.80
2022-07-25T20:08:39.261Z,75.10
2022-07-25T20:11:40.995Z,75.30
2022-07-25T20:14:42.672Z,75.30
2022-07-25T20:17:44.395Z,75.70
2022-07-25T20:20:46.188Z,76.20
2022-07-25T20:23:48.342Z,76.60
2022-07-25T20:26:50.091Z,77.00
2022-07-25T20:29:51.760Z,77.60
2022-07-25T20:32:53.556Z,77.60
2022-07-25T20:35:55.718Z,78.40
2022-07-25T20:38:57.344Z,78.70
2022-07-25T20:42:01.014Z,79.30
2022-07-25T20:45:03.045Z,79.90
2022-07-25T20:48:05.688Z,80.50
2022-07-25T20:51:07.388Z,81.00
2022-07-25T20:54:09.330Z,81.60
2022-07-25T20:57:11.642Z,82.30
2022-07-25T21:00:13.921Z,82.90
2022-07-25T21:03:15.519Z,83.40
2022-07-25T21:06:17.125Z,84.20
2022-07-25T21:09:18.776Z,85.30
2022-07-25T21:12:20.953Z,86.20
2022-07-25T21:15:23.685Z,87.00
2022-07-25T21:18:25.308Z,88.20
2022-07-25T21:21:27.056Z,89.40
2022-07-25T21:24:28.698Z,90.10
2022-07-25T21:27:30.448Z,90.40
2022-07-25T21:30:32.138Z,91.00
2022-07-25T21:33:33.750Z,91.50
2022-07-25T21:36:35.368Z,91.90
2022-07-25T21:39:39.741Z,92.40
2022-07-25T21:42:41.713Z,92.90
2022-07-25T21:45:43.494Z,93.70
2022-07-25T21:49:03.948Z,94.00
2022-07-25T21:52:06.088Z,94.50
2022-07-25T21:55:08.458Z,95.20
2022-07-25T21:58:10.082Z,95.80
2022-07-25T22:01:12.073Z,96.30
2022-07-25T22:04:13.803Z,96.90
2022-07-25T22:11:43.123Z,98.10
2022-07-25T22:14:48.018Z,98.80
2022-07-25T22:17:50.150Z,99.30
2022-07-25T22:20:51.934Z,99.70
2022-07-25T22:23:53.533Z,99.90
2022-07-25T22:26:55.198Z,99.90
2022-07-25T22:29:57.391Z,99.90
2022-07-25T22:32:59.003Z,99.90
2022-07-25T22:36:01.331Z,99.90
2022-07-25T22:39:03.869Z,99.90
2022-07-25T22:42:05.848Z,99.90
2022-07-25T22:45:08.303Z,99.90
2022-07-25T22:48:09.976Z,99.90
2022-07-25T22:51:11.871Z,99.90
2022-07-25T22:54:13.461Z,99.90
2022-07-25T22:57:15.074Z,99.90
2022-07-25T23:00:16.940Z,99.90
2022-07-25T23:03:18.643Z,99.90
2022-07-25T23:06:21.804Z,99.90
2022-07-25T23:09:23.496Z,99.90
2022-07-25T23:12:25.113Z,99.90
2022-07-25T23:15:26.868Z,99.90
2022-07-25T23:18:48.443Z,99.90
2022-07-25T23:21:50.036Z,99.90
2022-07-25T23:24:51.654Z,99.90
2022-07-25T23:27:53.266Z,99.90
2022-07-25T23:30:55.022Z,99.90
2022-07-25T23:33:56.627Z,99.90
2022-07-25T23:36:58.243Z,99.90
2022-07-25T23:39:59.809Z,99.90
2022-07-25T23:43:01.387Z,99.90
2022-07-25T23:46:05.295Z,99.90
2022-07-25T23:49:10.465Z,99.90
2022-07-25T23:52:12.421Z,99.90
2022-07-25T23:55:14.056Z,99.90
2022-07-25T23:58:15.892Z,99.90
